createdAt,value
2022-10-07T00:00:11.178Z,4.43
2022-10-07T00:05:12.874Z,4.57
2022-10-07T00:10:14.711Z,3.70
2022-10-07T00:15:16.965Z,4.97
2022-10-07T00:20:18.739Z,4.85
2022-10-07T00:25:21.486Z,4.53
2022-10-07T00:30:23.156Z,4.32
2022-10-07T00:35:24.760Z,4.80
2022-10-07T00:40:26.306Z,4.45
2022-10-07T00:45:28.383Z,4.63
2022-10-07T00:50:30.227Z,4.20
2022-10-07T00:55:32.382Z,5.32
2022-10-07T01:00:34.061Z,4.22
2022-10-07T01:05:35.698Z,3.47
2022-10-07T01:11:16.344Z,3.42
2022-10-07T01:16:48.487Z,3.63
2022-10-07T01:22:23.776Z,3.30
2022-10-07T01:27:27.412Z,3.42
2022-10-07T01:32:37.784Z,3.33
2022-10-07T01:37:44.679Z,3.60
2022-10-07T01:42:48.110Z,3.42
2022-10-07T01:47:50.684Z,3.30
2022-10-07T01:53:20.981Z,3.95
2022-10-07T01:58:53.748Z,3.70
2022-10-07T02:04:14.102Z,3.67
2022-10-07T02:09:30.331Z,3.67
2022-10-07T02:14:46.127Z,4.45
2022-10-07T02:19:56.551Z,4.07
2022-10-07T02:24:59.651Z,4.25
2022-10-07T02:30:11.155Z,3.83
2022-10-07T02:35:18.840Z,4.20
2022-10-07T02:40:25.010Z,3.85
2022-10-07T02:45:36.665Z,4.22
2022-10-07T02:50:42.369Z,4.40
2022-10-07T02:55:45.950Z,4.45
2022-10-07T03:00:53.157Z,3.92
2022-10-07T03:05:56.079Z,3.17
2022-10-07T03:11:01.200Z,3.60
2022-10-07T03:16:05.286Z,3.15
2022-10-07T03:21:08.621Z,4.28
2022-10-07T03:26:13.016Z,2.80
2022-10-07T03:31:15.572Z,3.10
2022-10-07T03:36:29.965Z,3.05
2022-10-07T03:41:31.827Z,3.33
2022-10-07T03:46:35.488Z,2.90
2022-10-07T03:51:37.250Z,2.42
2022-10-07T03:56:41.875Z,2.95
2022-10-07T04:01:43.541Z,2.63
2022-10-07T04:06:45.529Z,2.50
2022-10-07T04:11:49.182Z,2.60
2022-10-07T04:16:50.831Z,2.38
2022-10-07T04:21:52.899Z,2.58
2022-10-07T04:26:54.753Z,2.63
2022-10-07T04:31:58.842Z,2.40
2022-10-07T04:37:01.364Z,2.67
2022-10-07T04:42:04.185Z,2.22
2022-10-07T04:47:07.125Z,2.75
2022-10-07T04:52:11.703Z,2.70
2022-10-07T04:57:15.855Z,2.10
2022-10-07T05:02:19.439Z,2.47
2022-10-07T05:07:21.508Z,2.15
2022-10-07T05:12:25.059Z,2.05
2022-10-07T05:17:26.824Z,2.20
2022-10-07T05:22:28.560Z,2.28
2022-10-07T05:27:30.796Z,1.90
2022-10-07T05:32:35.256Z,1.80
2022-10-07T05:37:37.847Z,1.83
2022-10-07T05:42:39.560Z,2.22
2022-10-07T05:47:42.562Z,2.17
2022-10-07T05:52:45.365Z,2.10
2022-10-07T05:57:53.202Z,2.03
2022-10-07T06:02:55.180Z,2.30
2022-10-07T06:07:56.947Z,1.88
2022-10-07T06:13:08.747Z,1.90
2022-10-07T06:18:12.042Z,1.70
2022-10-07T06:23:13.745Z,2.10
2022-10-07T06:28:17.364Z,2.50
2022-10-07T06:33:19.618Z,1.63
2022-10-07T06:38:21.271Z,2.50
2022-10-07T06:43:23.037Z,2.22
2022-10-07T06:48:32.864Z,1.83
2022-10-07T06:53:34.718Z,1.88
2022-10-07T06:58:36.804Z,2.28
2022-10-07T07:03:40.458Z,2.10
2022-10-07T07:08:44.759Z,1.95
2022-10-07T07:13:47.268Z,1.83
2022-10-07T07:18:57.587Z,2.95
2022-10-07T07:24:01.264Z,2.60
2022-10-07T07:29:06.211Z,3.40
2022-10-07T07:34:16.332Z,3.20
2022-10-07T07:39:20.075Z,3.30
2022-10-07T07:44:34.042Z,3.45
2022-10-07T07:49:37.130Z,3.78
2022-10-07T07:54:41.915Z,3.05
2022-10-07T07:59:43.952Z,3.33
2022-10-07T08:04:48.136Z,3.83
2022-10-07T08:09:54.017Z,3.20
2022-10-07T08:14:55.684Z,3.70
2022-10-07T08:19:57.436Z,2.97
2022-10-07T08:25:00.268Z,3.40
2022-10-07T08:30:06.436Z,3.30
2022-10-07T08:35:08.974Z,3.35
2022-10-07T08:40:15.947Z,3.28
2022-10-07T08:45:29.389Z,3.83
2022-10-07T08:50:45.609Z,4.05
2022-10-07T08:55:47.167Z,3.22
2022-10-07T09:01:22.444Z,4.03
2022-10-07T09:06:55.328Z,4.45
2022-10-07T09:12:01.084Z,3.47
2022-10-07T09:17:17.091Z,3.97
2022-10-07T09:22:41.704Z,3.83
2022-10-07T09:27:43.575Z,4.13
2022-10-07T09:32:47.984Z,3.20
2022-10-07T09:37:55.813Z,3.65
2022-10-07T09:43:01.928Z,4.10
2022-10-07T09:48:17.346Z,3.70
2022-10-07T09:53:25.320Z,3.75
2022-10-07T09:58:26.821Z,4.60
2022-10-07T10:03:36.921Z,3.75
2022-10-07T10:08:42.612Z,3.60
2022-10-07T10:13:44.280Z,3.20
2022-10-07T10:18:55.556Z,4.10
2022-10-07T10:23:59.541Z,3.45
2022-10-07T10:29:18.384Z,3.90
2022-10-07T10:34:42.260Z,3.58
2022-10-07T10:40:09.043Z,3.30
2022-10-07T10:45:53.532Z,2.92
2022-10-07T10:51:05.974Z,3.35
2022-10-07T10:56:18.373Z,3.42
2022-10-07T11:01:36.545Z,3.28
2022-10-07T11:06:42.304Z,3.78
2022-10-07T11:11:44.931Z,3.35
2022-10-07T11:16:52.585Z,2.80
2022-10-07T11:21:57.315Z,3.13
2022-10-07T11:27:10.231Z,3.30
2022-10-07T11:32:22.821Z,3.03
2022-10-07T11:37:33.742Z,3.35
2022-10-07T11:42:44.493Z,3.03
2022-10-07T11:47:56.283Z,3.30
2022-10-07T11:53:05.631Z,3.47
2022-10-07T11:58:32.029Z,3.15
2022-10-07T12:03:33.712Z,3.35
2022-10-07T12:08:38.439Z,3.25
2022-10-07T12:13:51.631Z,3.70
2022-10-07T12:19:19.794Z,4.30
2022-10-07T12:24:26.685Z,3.60
2022-10-07T12:29:32.129Z,4.22
2022-10-07T12:34:39.933Z,3.92
2022-10-07T12:39:41.620Z,3.70
2022-10-07T12:44:52.587Z,3.92
2022-10-07T12:49:59.162Z,3.63
2022-10-07T12:55:14.336Z,3.83
2022-10-07T13:00:20.063Z,3.83
2022-10-07T13:05:59.285Z,3.83
2022-10-07T13:11:22.634Z,3.35
2022-10-07T13:16:45.475Z,4.07
2022-10-07T13:21:51.128Z,3.88
2022-10-07T13:26:52.915Z,4.38
2022-10-07T13:32:13.081Z,3.88
2022-10-07T13:37:32.247Z,4.25
2022-10-07T13:42:35.205Z,4.20
2022-10-07T13:47:37.941Z,3.47
2022-10-07T13:52:40.175Z,3.60
2022-10-07T13:57:44.309Z,3.58
2022-10-07T14:02:46.489Z,3.72
2022-10-07T14:07:56.032Z,4.47
2022-10-07T14:13:04.883Z,3.90
2022-10-07T14:18:09.190Z,3.60
2022-10-07T14:23:35.138Z,3.92
2022-10-07T14:28:38.657Z,3.72
2022-10-07T14:34:20.533Z,3.55
2022-10-07T14:39:24.065Z,4.07
2022-10-07T14:44:25.987Z,4.38
2022-10-07T14:49:27.911Z,4.05
2022-10-07T14:54:30.891Z,3.72
2022-10-07T14:59:32.399Z,3.70
2022-10-07T15:04:36.529Z,3.88
2022-10-07T15:09:38.097Z,3.90
2022-10-07T15:14:39.669Z,4.68
2022-10-07T15:19:41.323Z,3.88
2022-10-07T15:24:42.836Z,3.97
2022-10-07T15:29:44.644Z,4.00
2022-10-07T15:34:46.354Z,4.32
2022-10-07T15:39:48.376Z,3.58
2022-10-07T15:44:51.135Z,2.72
2022-10-07T15:49:52.653Z,3.95
2022-10-07T15:54:54.317Z,3.70
2022-10-07T15:59:55.911Z,3.42
2022-10-07T16:04:57.448Z,4.03
2022-10-07T16:09:58.981Z,3.45
2022-10-07T16:15:02.848Z,3.80
2022-10-07T16:20:11.229Z,4.38
2022-10-07T16:25:14.574Z,4.55
2022-10-07T16:30:34.694Z,4.00
2022-10-07T16:35:36.233Z,4.30
2022-10-07T16:40:51.360Z,3.90
2022-10-07T16:45:52.877Z,4.72
2022-10-07T16:50:55.462Z,4.13
2022-10-07T16:56:01.154Z,4.13
2022-10-07T17:01:04.328Z,5.32
2022-10-07T17:06:12.904Z,6.43
2022-10-07T17:11:30.360Z,7.07
2022-10-07T17:16:36.578Z,6.50
2022-10-07T17:21:40.068Z,6.60
2022-10-07T17:26:41.639Z,6.32
2022-10-07T17:31:44.279Z,6.85
2022-10-07T17:36:48.954Z,7.40
2022-10-07T17:41:52.619Z,6.85
2022-10-07T17:46:56.695Z,6.68
2022-10-07T17:51:58.367Z,5.80
2022-10-07T17:57:05.675Z,7.40
2022-10-07T18:02:08.518Z,7.85
2022-10-07T18:07:10.432Z,7.82
2022-10-07T18:12:30.664Z,7.53
2022-10-07T18:17:32.216Z,7.57
2022-10-07T18:22:34.764Z,11.38
2022-10-07T18:27:36.309Z,9.13
2022-10-07T18:32:37.936Z,8.18
2022-10-07T18:37:41.645Z,9.95
2022-10-07T18:42:43.297Z,9.73
2022-10-07T18:47:45.019Z,9.70
2022-10-07T18:52:46.795Z,9.75
2022-10-07T18:57:48.719Z,9.90
2022-10-07T19:02:51.223Z,10.80
2022-10-07T19:07:52.727Z,10.98
2022-10-07T19:13:20.639Z,10.27
2022-10-07T19:18:25.353Z,9.52
2022-10-07T19:23:27.887Z,10.98
2022-10-07T19:28:34.632Z,10.38
2022-10-07T19:33:36.164Z,10.00
2022-10-07T19:38:42.199Z,9.60
2022-10-07T19:43:45.061Z,10.32
2022-10-07T19:48:46.956Z,11.13
2022-10-07T19:53:55.378Z,11.05
2022-10-07T19:59:13.260Z,10.93
2022-10-07T20:04:18.878Z,9.55
2022-10-07T20:09:20.662Z,9.77
2022-10-07T20:14:22.198Z,11.98
2022-10-07T20:19:25.859Z,10.57
2022-10-07T20:24:38.696Z,10.13
2022-10-07T20:29:57.022Z,10.80
2022-10-07T20:34:58.775Z,10.15
2022-10-07T20:40:30.419Z,10.50
2022-10-07T20:45:57.669Z,13.10
2022-10-07T20:51:08.297Z,11.07
2022-10-07T20:56:09.915Z,10.20
2022-10-07T21:01:12.365Z,9.32
2022-10-07T21:06:18.959Z,9.50
2022-10-07T21:11:20.608Z,9.35
2022-10-07T21:16:24.164Z,9.45
2022-10-07T21:21:29.948Z,9.05
2022-10-07T21:26:31.460Z,10.20
2022-10-07T21:31:35.942Z,9.20
2022-10-07T21:36:41.118Z,9.45
2022-10-07T21:41:59.820Z,9.75
2022-10-07T21:47:01.478Z,9.63
2022-10-07T21:52:03.090Z,9.00
2022-10-07T21:57:18.750Z,8.65
2022-10-07T22:02:20.349Z,9.20
2022-10-07T22:07:55.194Z,8.65
2022-10-07T22:13:01.920Z,7.82
2022-10-07T22:18:04.280Z,7.57
2022-10-07T22:23:05.853Z,9.70
2022-10-07T22:28:07.430Z,9.02
2022-10-07T22:33:13.262Z,10.57
2022-10-07T22:38:17.778Z,10.80
2022-10-07T22:43:19.279Z,10.60
2022-10-07T22:48:20.794Z,9.25
2022-10-07T22:53:24.007Z,10.00
2022-10-07T22:58:25.509Z,11.23
2022-10-07T23:03:29.913Z,10.70
2022-10-07T23:08:37.241Z,10.93
2022-10-07T23:13:42.244Z,11.80
2022-10-07T23:18:59.957Z,11.40
2022-10-07T23:24:13.837Z,12.90
2022-10-07T23:29:17.761Z,11.68
2022-10-07T23:34:19.301Z,10.55
2022-10-07T23:39:22.219Z,11.50
2022-10-07T23:44:24.013Z,10.55
2022-10-07T23:49:26.133Z,9.93
2022-10-07T23:54:27.661Z,11.32
2022-10-07T23:59:35.798Z,10.90
